sensor_id;sensor_type;location;lat;lon;timestamp;P1;durP1;ratioP1;P2;durP2;ratioP2
64609;SDS011;51019;46.090;6.350;2022-11-15T00:01:07;15.05;;;6.20;;
64609;SDS011;51019;46.090;6.350;2022-11-15T00:03:35;14.77;;;7.00;;
64609;SDS011;51019;46.090;6.350;2022-11-15T00:06:03;16.50;;;6.55;;
64609;SDS011;51019;46.090;6.350;2022-11-15T00:08:32;16.25;;;6.50;;
64609;SDS011;51019;46.090;6.350;2022-11-15T00:11:00;16.15;;;7.10;;
64609;SDS011;51019;46.090;6.350;2022-11-15T00:13:29;14.90;;;6.78;;
64609;SDS011;51019;46.090;6.350;2022-11-15T00:15:56;16.42;;;7.43;;
64609;SDS011;51019;46.090;6.350;2022-11-15T00:18:26;17.20;;;7.20;;
64609;SDS011;51019;46.090;6.350;2022-11-15T00:20:55;16.83;;;7.10;;
64609;SDS011;51019;46.090;6.350;2022-11-15T00:23:23;16.50;;;6.13;;
64609;SDS011;51019;46.090;6.350;2022-11-15T00:25:55;19.33;;;6.63;;
64609;SDS011;51019;46.090;6.350;2022-11-15T00:28:26;17.02;;;7.10;;
64609;SDS011;51019;46.090;6.350;2022-11-15T00:30:54;15.55;;;6.82;;
64609;SDS011;51019;46.090;6.350;2022-11-15T00:33:28;17.33;;;7.40;;
64609;SDS011;51019;46.090;6.350;2022-11-15T00:35:59;17.88;;;6.43;;
64609;SDS011;51019;46.090;6.350;2022-11-15T00:38:30;19.77;;;7.18;;
64609;SDS011;51019;46.090;6.350;2022-11-15T00:40:57;17.35;;;7.50;;
64609;SDS011;51019;46.090;6.350;2022-11-15T00:43:25;15.32;;;6.93;;
64609;SDS011;51019;46.090;6.350;2022-11-15T00:45:52;19.80;;;7.28;;
64609;SDS011;51019;46.090;6.350;2022-11-15T00:48:19;16.90;;;6.95;;
64609;SDS011;51019;46.090;6.350;2022-11-15T00:50:48;17.23;;;6.97;;
64609;SDS011;51019;46.090;6.350;2022-11-15T00:53:16;17.38;;;7.57;;
64609;SDS011;51019;46.090;6.350;2022-11-15T00:55:43;17.25;;;7.35;;
64609;SDS011;51019;46.090;6.350;2022-11-15T00:58:10;16.98;;;7.60;;
64609;SDS011;51019;46.090;6.350;2022-11-15T01:00:39;17.33;;;7.93;;
64609;SDS011;51019;46.090;6.350;2022-11-15T01:03:07;16.52;;;8.05;;
64609;SDS011;51019;46.090;6.350;2022-11-15T01:05:36;16.55;;;7.20;;
64609;SDS011;51019;46.090;6.350;2022-11-15T01:08:06;19.67;;;7.65;;
64609;SDS011;51019;46.090;6.350;2022-11-15T01:10:37;17.38;;;7.35;;
64609;SDS011;51019;46.090;6.350;2022-11-15T01:13:04;16.63;;;7.07;;
64609;SDS011;51019;46.090;6.350;2022-11-15T01:15:31;17.20;;;7.07;;
64609;SDS011;51019;46.090;6.350;2022-11-15T01:17:59;17.65;;;7.03;;
64609;SDS011;51019;46.090;6.350;2022-11-15T01:20:26;17.65;;;7.57;;
64609;SDS011;51019;46.090;6.350;2022-11-15T01:22:54;19.63;;;7.10;;
64609;SDS011;51019;46.090;6.350;2022-11-15T01:25:25;16.98;;;7.03;;
64609;SDS011;51019;46.090;6.350;2022-11-15T01:27:52;19.38;;;7.40;;
64609;SDS011;51019;46.090;6.350;2022-11-15T01:30:19;14.45;;;6.30;;
64609;SDS011;51019;46.090;6.350;2022-11-15T01:32:46;14.75;;;5.90;;
64609;SDS011;51019;46.090;6.350;2022-11-15T01:35:14;15.57;;;6.28;;
64609;SDS011;51019;46.090;6.350;2022-11-15T01:37:41;17.80;;;6.43;;
64609;SDS011;51019;46.090;6.350;2022-11-15T01:40:09;21.70;;;6.53;;
64609;SDS011;51019;46.090;6.350;2022-11-15T01:42:38;14.82;;;5.88;;
64609;SDS011;51019;46.090;6.350;2022-11-15T01:45:07;16.70;;;5.85;;
64609;SDS011;51019;46.090;6.350;2022-11-15T01:47:40;16.65;;;6.45;;
64609;SDS011;51019;46.090;6.350;2022-11-15T01:50:12;17.63;;;6.10;;
64609;SDS011;51019;46.090;6.350;2022-11-15T01:52:42;16.27;;;5.88;;
64609;SDS011;51019;46.090;6.350;2022-11-15T01:55:10;15.68;;;5.75;;
64609;SDS011;51019;46.090;6.350;2022-11-15T01:57:42;14.05;;;5.35;;
64609;SDS011;51019;46.090;6.350;2022-11-15T02:00:13;22.17;;;5.60;;
64609;SDS011;51019;46.090;6.350;2022-11-15T02:02:42;14.05;;;4.90;;
64609;SDS011;51019;46.090;6.350;2022-11-15T02:05:09;15.55;;;6.47;;
64609;SDS011;51019;46.090;6.350;2022-11-15T02:07:36;13.95;;;5.80;;
64609;SDS011;51019;46.090;6.350;2022-11-15T02:10:06;14.38;;;6.03;;
64609;SDS011;51019;46.090;6.350;2022-11-15T02:12:35;14.93;;;5.72;;
64609;SDS011;51019;46.090;6.350;2022-11-15T02:15:05;15.73;;;6.30;;
64609;SDS011;51019;46.090;6.350;2022-11-15T02:17:43;15.98;;;6.72;;
64609;SDS011;51019;46.090;6.350;2022-11-15T02:23:20;15.60;;;6.30;;
64609;SDS011;51019;46.090;6.350;2022-11-15T02:26:15;16.63;;;6.15;;
64609;SDS011;51019;46.090;6.350;2022-11-15T02:28:59;18.85;;;6.22;;
64609;SDS011;51019;46.090;6.350;2022-11-15T02:31:32;15.77;;;6.25;;
64609;SDS011;51019;46.090;6.350;2022-11-15T02:34:06;16.05;;;5.85;;
64609;SDS011;51019;46.090;6.350;2022-11-15T02:36:41;16.83;;;6.15;;
64609;SDS011;51019;46.090;6.350;2022-11-15T02:39:16;15.48;;;5.60;;
64609;SDS011;51019;46.090;6.350;2022-11-15T02:41:51;15.57;;;6.50;;
64609;SDS011;51019;46.090;6.350;2022-11-15T02:44:24;17.88;;;6.97;;
64609;SDS011;51019;46.090;6.350;2022-11-15T02:49:40;18.77;;;7.20;;
64609;SDS011;51019;46.090;6.350;2022-11-15T02:52:14;15.50;;;7.00;;
64609;SDS011;51019;46.090;6.350;2022-11-15T02:54:42;15.48;;;6.43;;
64609;SDS011;51019;46.090;6.350;2022-11-15T02:57:18;16.20;;;6.28;;
64609;SDS011;51019;46.090;6.350;2022-11-15T03:00:01;14.05;;;5.70;;
64609;SDS011;51019;46.090;6.350;2022-11-15T03:05:46;15.32;;;6.10;;
64609;SDS011;51019;46.090;6.350;2022-11-15T03:08:22;15.38;;;5.80;;
64609;SDS011;51019;46.090;6.350;2022-11-15T03:10:58;14.40;;;5.40;;
64609;SDS011;51019;46.090;6.350;2022-11-15T03:13:31;12.57;;;4.85;;
64609;SDS011;51019;46.090;6.350;2022-11-15T03:16:06;15.23;;;4.88;;
64609;SDS011;51019;46.090;6.350;2022-11-15T03:18:38;13.45;;;4.28;;
64609;SDS011;51019;46.090;6.350;2022-11-15T03:21:11;13.68;;;4.55;;
64609;SDS011;51019;46.090;6.350;2022-11-15T03:23:40;15.38;;;4.00;;
64609;SDS011;51019;46.090;6.350;2022-11-15T03:26:09;12.85;;;4.00;;
64609;SDS011;51019;46.090;6.350;2022-11-15T03:28:40;14.55;;;4.43;;
64609;SDS011;51019;46.090;6.350;2022-11-15T03:31:14;11.52;;;3.97;;
64609;SDS011;51019;46.090;6.350;2022-11-15T03:34:01;12.85;;;3.78;;
64609;SDS011;51019;46.090;6.350;2022-11-15T03:36:34;10.77;;;3.40;;
64609;SDS011;51019;46.090;6.350;2022-11-15T03:39:02;12.82;;;3.72;;
64609;SDS011;51019;46.090;6.350;2022-11-15T03:41:34;15.43;;;4.93;;
64609;SDS011;51019;46.090;6.350;2022-11-15T03:44:11;13.20;;;3.65;;
64609;SDS011;51019;46.090;6.350;2022-11-15T03:46:46;13.95;;;4.35;;
64609;SDS011;51019;46.090;6.350;2022-11-15T03:49:24;15.60;;;5.20;;
64609;SDS011;51019;46.090;6.350;2022-11-15T03:51:57;13.85;;;5.85;;
64609;SDS011;51019;46.090;6.350;2022-11-15T03:54:27;16.70;;;6.60;;
64609;SDS011;51019;46.090;6.350;2022-11-15T03:56:54;16.20;;;6.20;;
64609;SDS011;51019;46.090;6.350;2022-11-15T03:59:21;15.95;;;6.65;;
64609;SDS011;51019;46.090;6.350;2022-11-15T04:01:49;17.92;;;6.20;;
64609;SDS011;51019;46.090;6.350;2022-11-15T04:04:16;15.45;;;6.35;;
64609;SDS011;51019;46.090;6.350;2022-11-15T04:06:43;15.15;;;6.30;;
64609;SDS011;51019;46.090;6.350;2022-11-15T04:09:12;15.38;;;5.68;;
64609;SDS011;51019;46.090;6.350;2022-11-15T04:11:39;14.55;;;5.85;;
64609;SDS011;51019;46.090;6.350;2022-11-15T04:14:06;15.30;;;6.07;;
64609;SDS011;51019;46.090;6.350;2022-11-15T04:16:33;12.75;;;3.85;;
64609;SDS011;51019;46.090;6.350;2022-11-15T04:19:00;13.98;;;4.40;;
64609;SDS011;51019;46.090;6.350;2022-11-15T04:21:44;12.07;;;3.92;;
64609;SDS011;51019;46.090;6.350;2022-11-15T04:24:31;12.23;;;3.70;;
64609;SDS011;51019;46.090;6.350;2022-11-15T04:26:58;11.88;;;3.88;;
64609;SDS011;51019;46.090;6.350;2022-11-15T04:29:25;12.50;;;3.88;;
64609;SDS011;51019;46.090;6.350;2022-11-15T04:32:01;12.05;;;4.00;;
64609;SDS011;51019;46.090;6.350;2022-11-15T04:34:29;13.77;;;4.05;;
64609;SDS011;51019;46.090;6.350;2022-11-15T04:36:58;12.07;;;4.18;;
64609;SDS011;51019;46.090;6.350;2022-11-15T04:39:43;12.50;;;3.42;;
64609;SDS011;51019;46.090;6.350;2022-11-15T04:42:12;14.05;;;5.10;;
64609;SDS011;51019;46.090;6.350;2022-11-15T04:44:39;14.38;;;5.30;;
64609;SDS011;51019;46.090;6.350;2022-11-15T04:47:06;15.43;;;5.18;;
64609;SDS011;51019;46.090;6.350;2022-11-15T04:49:34;13.32;;;5.05;;
64609;SDS011;51019;46.090;6.350;2022-11-15T04:52:01;15.73;;;5.57;;
64609;SDS011;51019;46.090;6.350;2022-11-15T04:54:28;14.02;;;4.60;;
64609;SDS011;51019;46.090;6.350;2022-11-15T04:56:57;15.73;;;5.40;;
64609;SDS011;51019;46.090;6.350;2022-11-15T04:59:24;13.68;;;5.25;;
64609;SDS011;51019;46.090;6.350;2022-11-15T05:01:51;15.38;;;5.10;;
64609;SDS011;51019;46.090;6.350;2022-11-15T05:04:19;13.02;;;4.95;;
64609;SDS011;51019;46.090;6.350;2022-11-15T05:06:46;13.30;;;5.00;;
64609;SDS011;51019;46.090;6.350;2022-11-15T05:09:14;13.10;;;4.50;;
64609;SDS011;51019;46.090;6.350;2022-11-15T05:11:42;15.18;;;5.07;;
64609;SDS011;51019;46.090;6.350;2022-11-15T05:14:11;13.43;;;5.15;;
64609;SDS011;51019;46.090;6.350;2022-11-15T05:16:38;18.70;;;5.72;;
64609;SDS011;51019;46.090;6.350;2022-11-15T05:19:06;15.35;;;4.97;;
64609;SDS011;51019;46.090;6.350;2022-11-15T05:21:34;13.20;;;4.97;;
64609;SDS011;51019;46.090;6.350;2022-11-15T05:24:02;15.43;;;4.82;;
64609;SDS011;51019;46.090;6.350;2022-11-15T05:26:29;12.98;;;4.45;;
64609;SDS011;51019;46.090;6.350;2022-11-15T05:28:57;14.43;;;5.88;;
64609;SDS011;51019;46.090;6.350;2022-11-15T05:31:27;15.63;;;5.13;;
64609;SDS011;51019;46.090;6.350;2022-11-15T05:33:55;13.93;;;4.70;;
64609;SDS011;51019;46.090;6.350;2022-11-15T05:36:25;13.07;;;4.88;;
64609;SDS011;51019;46.090;6.350;2022-11-15T05:38:57;15.88;;;4.57;;
64609;SDS011;51019;46.090;6.350;2022-11-15T05:41:25;13.00;;;4.32;;
64609;SDS011;51019;46.090;6.350;2022-11-15T05:43:56;16.08;;;4.90;;
64609;SDS011;51019;46.090;6.350;2022-11-15T05:46:28;16.27;;;4.38;;
64609;SDS011;51019;46.090;6.350;2022-11-15T05:48:56;13.55;;;4.40;;
64609;SDS011;51019;46.090;6.350;2022-11-15T05:51:24;14.23;;;5.93;;
64609;SDS011;51019;46.090;6.350;2022-11-15T05:53:54;13.32;;;4.78;;
64609;SDS011;51019;46.090;6.350;2022-11-15T05:56:23;15.15;;;5.65;;
64609;SDS011;51019;46.090;6.350;2022-11-15T05:58:51;14.18;;;5.38;;
64609;SDS011;51019;46.090;6.350;2022-11-15T06:01:20;13.65;;;5.05;;
64609;SDS011;51019;46.090;6.350;2022-11-15T06:03:49;15.35;;;5.30;;
64609;SDS011;51019;46.090;6.350;2022-11-15T06:06:17;18.95;;;5.90;;
64609;SDS011;51019;46.090;6.350;2022-11-15T06:08:45;14.48;;;5.05;;
64609;SDS011;51019;46.090;6.350;2022-11-15T06:11:13;13.32;;;4.88;;
64609;SDS011;51019;46.090;6.350;2022-11-15T06:13:40;15.85;;;5.50;;
64609;SDS011;51019;46.090;6.350;2022-11-15T06:16:07;17.75;;;6.22;;
64609;SDS011;51019;46.090;6.350;2022-11-15T06:18:34;20.05;;;7.05;;
64609;SDS011;51019;46.090;6.350;2022-11-15T06:21:04;21.35;;;7.32;;
64609;SDS011;51019;46.090;6.350;2022-11-15T06:23:32;15.50;;;5.63;;
64609;SDS011;51019;46.090;6.350;2022-11-15T06:26:01;11.77;;;4.35;;
64609;SDS011;51019;46.090;6.350;2022-11-15T06:28:29;17.27;;;5.72;;
64609;SDS011;51019;46.090;6.350;2022-11-15T06:31:01;16.63;;;5.57;;
64609;SDS011;51019;46.090;6.350;2022-11-15T06:33:29;15.95;;;5.50;;
64609;SDS011;51019;46.090;6.350;2022-11-15T06:35:57;14.60;;;5.75;;
64609;SDS011;51019;46.090;6.350;2022-11-15T06:38:31;15.52;;;5.50;;
64609;SDS011;51019;46.090;6.350;2022-11-15T06:41:00;14.93;;;5.90;;
64609;SDS011;51019;46.090;6.350;2022-11-15T06:43:28;13.40;;;4.95;;
64609;SDS011;51019;46.090;6.350;2022-11-15T06:45:57;13.15;;;4.82;;
64609;SDS011;51019;46.090;6.350;2022-11-15T06:48:24;14.23;;;4.57;;
64609;SDS011;51019;46.090;6.350;2022-11-15T06:50:51;15.15;;;5.63;;
64609;SDS011;51019;46.090;6.350;2022-11-15T06:53:18;15.05;;;5.63;;
64609;SDS011;51019;46.090;6.350;2022-11-15T06:55:47;21.70;;;8.98;;
64609;SDS011;51019;46.090;6.350;2022-11-15T06:58:15;27.38;;;12.55;;
64609;SDS011;51019;46.090;6.350;2022-11-15T07:00:42;49.88;;;21.80;;
64609;SDS011;51019;46.090;6.350;2022-11-15T07:03:11;42.30;;;27.15;;
64609;SDS011;51019;46.090;6.350;2022-11-15T07:05:39;25.08;;;11.48;;
64609;SDS011;51019;46.090;6.350;2022-11-15T07:08:06;15.20;;;4.95;;
64609;SDS011;51019;46.090;6.350;2022-11-15T07:10:34;12.15;;;4.05;;
64609;SDS011;51019;46.090;6.350;2022-11-15T07:13:03;12.52;;;3.88;;
64609;SDS011;51019;46.090;6.350;2022-11-15T07:15:30;11.15;;;3.60;;
64609;SDS011;51019;46.090;6.350;2022-11-15T07:18:00;11.88;;;3.72;;
64609;SDS011;51019;46.090;6.350;2022-11-15T07:20:27;12.63;;;3.78;;
64609;SDS011;51019;46.090;6.350;2022-11-15T07:22:59;12.13;;;3.70;;
64609;SDS011;51019;46.090;6.350;2022-11-15T07:25:30;12.80;;;4.28;;
64609;SDS011;51019;46.090;6.350;2022-11-15T07:27:57;12.60;;;4.30;;
64609;SDS011;51019;46.090;6.350;2022-11-15T07:30:27;13.30;;;4.22;;
64609;SDS011;51019;46.090;6.350;2022-11-15T07:32:54;12.57;;;4.50;;
64609;SDS011;51019;46.090;6.350;2022-11-15T07:35:22;11.32;;;3.90;;
64609;SDS011;51019;46.090;6.350;2022-11-15T07:37:53;13.30;;;3.67;;
64609;SDS011;51019;46.090;6.350;2022-11-15T07:40:21;14.00;;;4.78;;
64609;SDS011;51019;46.090;6.350;2022-11-15T07:42:48;13.93;;;4.45;;
64609;SDS011;51019;46.090;6.350;2022-11-15T07:45:32;12.07;;;4.47;;
64609;SDS011;51019;46.090;6.350;2022-11-15T07:48:01;12.00;;;4.70;;
64609;SDS011;51019;46.090;6.350;2022-11-15T07:50:40;12.98;;;4.10;;
64609;SDS011;51019;46.090;6.350;2022-11-15T07:53:08;14.10;;;4.65;;
64609;SDS011;51019;46.090;6.350;2022-11-15T07:55:36;12.50;;;3.90;;
64609;SDS011;51019;46.090;6.350;2022-11-15T07:58:04;11.40;;;3.90;;
64609;SDS011;51019;46.090;6.350;2022-11-15T08:00:35;12.73;;;4.75;;
64609;SDS011;51019;46.090;6.350;2022-11-15T08:03:03;14.90;;;5.22;;
64609;SDS011;51019;46.090;6.350;2022-11-15T08:05:31;14.10;;;5.15;;
64609;SDS011;51019;46.090;6.350;2022-11-15T08:07:58;16.75;;;4.88;;
64609;SDS011;51019;46.090;6.350;2022-11-15T08:10:26;14.48;;;5.10;;
64609;SDS011;51019;46.090;6.350;2022-11-15T08:12:57;17.38;;;7.13;;
64609;SDS011;51019;46.090;6.350;2022-11-15T08:15:25;17.77;;;5.68;;
64609;SDS011;51019;46.090;6.350;2022-11-15T08:17:55;15.73;;;5.90;;
64609;SDS011;51019;46.090;6.350;2022-11-15T08:20:22;14.20;;;5.82;;
64609;SDS011;51019;46.090;6.350;2022-11-15T08:22:51;17.27;;;7.13;;
64609;SDS011;51019;46.090;6.350;2022-11-15T08:25:18;15.98;;;6.85;;
64609;SDS011;51019;46.090;6.350;2022-11-15T08:27:46;15.27;;;5.70;;
64609;SDS011;51019;46.090;6.350;2022-11-15T08:30:13;15.13;;;5.43;;
64609;SDS011;51019;46.090;6.350;2022-11-15T08:32:41;14.55;;;5.32;;
64609;SDS011;51019;46.090;6.350;2022-11-15T08:35:10;15.75;;;4.45;;
64609;SDS011;51019;46.090;6.350;2022-11-15T08:37:40;15.02;;;5.10;;
64609;SDS011;51019;46.090;6.350;2022-11-15T08:40:07;15.40;;;5.75;;
64609;SDS011;51019;46.090;6.350;2022-11-15T08:42:41;12.77;;;4.45;;
64609;SDS011;51019;46.090;6.350;2022-11-15T08:45:08;16.15;;;5.40;;
64609;SDS011;51019;46.090;6.350;2022-11-15T08:47:36;14.23;;;4.78;;
64609;SDS011;51019;46.090;6.350;2022-11-15T08:50:04;12.63;;;4.72;;
64609;SDS011;51019;46.090;6.350;2022-11-15T08:52:33;16.02;;;4.90;;
64609;SDS011;51019;46.090;6.350;2022-11-15T08:55:00;19.65;;;7.25;;
64609;SDS011;51019;46.090;6.350;2022-11-15T08:57:28;16.95;;;6.32;;
64609;SDS011;51019;46.090;6.350;2022-11-15T08:59:58;13.07;;;4.68;;
64609;SDS011;51019;46.090;6.350;2022-11-15T09:02:27;14.40;;;5.20;;
64609;SDS011;51019;46.090;6.350;2022-11-15T09:04:55;14.23;;;5.40;;
64609;SDS011;51019;46.090;6.350;2022-11-15T09:07:24;14.05;;;4.93;;
64609;SDS011;51019;46.090;6.350;2022-11-15T09:09:57;18.15;;;5.75;;
64609;SDS011;51019;46.090;6.350;2022-11-15T09:12:27;12.82;;;4.70;;
64609;SDS011;51019;46.090;6.350;2022-11-15T09:14:54;14.10;;;4.80;;
64609;SDS011;51019;46.090;6.350;2022-11-15T09:17:21;12.18;;;4.22;;
64609;SDS011;51019;46.090;6.350;2022-11-15T09:19:48;14.95;;;5.10;;
64609;SDS011;51019;46.090;6.350;2022-11-15T09:22:15;13.20;;;5.32;;
64609;SDS011;51019;46.090;6.350;2022-11-15T09:24:42;14.32;;;5.97;;
64609;SDS011;51019;46.090;6.350;2022-11-15T09:27:13;12.27;;;4.95;;
64609;SDS011;51019;46.090;6.350;2022-11-15T09:29:41;14.70;;;5.22;;
64609;SDS011;51019;46.090;6.350;2022-11-15T09:32:08;13.95;;;4.93;;
64609;SDS011;51019;46.090;6.350;2022-11-15T09:34:36;13.50;;;5.35;;
64609;SDS011;51019;46.090;6.350;2022-11-15T09:37:03;15.93;;;6.18;;
64609;SDS011;51019;46.090;6.350;2022-11-15T09:39:30;14.50;;;5.82;;
64609;SDS011;51019;46.090;6.350;2022-11-15T09:42:04;15.25;;;7.07;;
64609;SDS011;51019;46.090;6.350;2022-11-15T09:44:53;15.32;;;5.65;;
64609;SDS011;51019;46.090;6.350;2022-11-15T09:47:46;16.27;;;6.50;;
64609;SDS011;51019;46.090;6.350;2022-11-15T09:50:38;15.98;;;5.57;;
64609;SDS011;51019;46.090;6.350;2022-11-15T09:53:13;16.27;;;5.70;;
64609;SDS011;51019;46.090;6.350;2022-11-15T09:55:46;15.15;;;6.25;;
64609;SDS011;51019;46.090;6.350;2022-11-15T09:58:24;16.92;;;6.20;;
64609;SDS011;51019;46.090;6.350;2022-11-15T10:00:56;16.77;;;6.07;;
64609;SDS011;51019;46.090;6.350;2022-11-15T10:03:27;16.42;;;6.85;;
64609;SDS011;51019;46.090;6.350;2022-11-15T10:06:00;19.60;;;7.28;;
64609;SDS011;51019;46.090;6.350;2022-11-15T10:11:28;14.18;;;5.57;;
64609;SDS011;51019;46.090;6.350;2022-11-15T10:14:01;16.45;;;5.63;;
64609;SDS011;51019;46.090;6.350;2022-11-15T10:16:46;13.18;;;5.60;;
64609;SDS011;51019;46.090;6.350;2022-11-15T10:19:30;15.02;;;5.72;;
64609;SDS011;51019;46.090;6.350;2022-11-15T10:22:11;16.80;;;6.15;;
64609;SDS011;51019;46.090;6.350;2022-11-15T10:27:45;14.80;;;5.85;;
64609;SDS011;51019;46.090;6.350;2022-11-15T10:30:20;14.77;;;5.65;;
64609;SDS011;51019;46.090;6.350;2022-11-15T10:32:48;13.75;;;5.55;;
64609;SDS011;51019;46.090;6.350;2022-11-15T10:35:17;14.85;;;5.40;;
64609;SDS011;51019;46.090;6.350;2022-11-15T10:37:47;15.38;;;5.10;;
64609;SDS011;51019;46.090;6.350;2022-11-15T10:40:16;13.68;;;4.80;;
64609;SDS011;51019;46.090;6.350;2022-11-15T10:42:48;16.00;;;5.30;;
64609;SDS011;51019;46.090;6.350;2022-11-15T10:45:32;14.32;;;5.07;;
64609;SDS011;51019;46.090;6.350;2022-11-15T10:50:51;14.05;;;5.28;;
64609;SDS011;51019;46.090;6.350;2022-11-15T10:53:24;13.07;;;5.25;;
64609;SDS011;51019;46.090;6.350;2022-11-15T10:56:06;15.75;;;5.55;;
64609;SDS011;51019;46.090;6.350;2022-11-15T10:58:39;16.23;;;5.05;;
64609;SDS011;51019;46.090;6.350;2022-11-15T11:01:11;14.88;;;5.40;;
64609;SDS011;51019;46.090;6.350;2022-11-15T11:06:10;14.13;;;5.30;;
64609;SDS011;51019;46.090;6.350;2022-11-15T11:08:39;13.90;;;4.97;;
64609;SDS011;51019;46.090;6.350;2022-11-15T11:11:07;14.88;;;6.80;;
64609;SDS011;51019;46.090;6.350;2022-11-15T11:13:36;15.98;;;5.78;;
64609;SDS011;51019;46.090;6.350;2022-11-15T11:19:02;15.27;;;5.90;;
64609;SDS011;51019;46.090;6.350;2022-11-15T11:21:41;12.73;;;4.75;;
64609;SDS011;51019;46.090;6.350;2022-11-15T11:24:19;14.75;;;5.20;;
64609;SDS011;51019;46.090;6.350;2022-11-15T11:27:01;15.40;;;5.40;;
64609;SDS011;51019;46.090;6.350;2022-11-15T11:29:49;14.27;;;5.32;;
64609;SDS011;51019;46.090;6.350;2022-11-15T11:32:29;14.57;;;4.90;;
64609;SDS011;51019;46.090;6.350;2022-11-15T11:35:09;13.07;;;5.13;;
64609;SDS011;51019;46.090;6.350;2022-11-15T11:37:43;13.45;;;4.70;;
64609;SDS011;51019;46.090;6.350;2022-11-15T11:40:30;13.13;;;4.95;;
64609;SDS011;51019;46.090;6.350;2022-11-15T11:43:03;15.15;;;4.72;;
64609;SDS011;51019;46.090;6.350;2022-11-15T11:45:44;14.70;;;5.53;;
64609;SDS011;51019;46.090;6.350;2022-11-15T11:51:10;14.82;;;4.88;;
64609;SDS011;51019;46.090;6.350;2022-11-15T11:53:43;14.15;;;5.35;;
64609;SDS011;51019;46.090;6.350;2022-11-15T11:56:17;15.30;;;4.95;;
64609;SDS011;51019;46.090;6.350;2022-11-15T11:58:49;13.00;;;4.68;;
64609;SDS011;51019;46.090;6.350;2022-11-15T12:01:20;13.35;;;5.07;;
64609;SDS011;51019;46.090;6.350;2022-11-15T12:03:53;13.05;;;4.88;;
64609;SDS011;51019;46.090;6.350;2022-11-15T12:08:57;13.07;;;4.82;;
64609;SDS011;51019;46.090;6.350;2022-11-15T12:11:29;12.23;;;4.70;;
64609;SDS011;51019;46.090;6.350;2022-11-15T12:14:03;14.45;;;5.13;;
64609;SDS011;51019;46.090;6.350;2022-11-15T12:16:36;14.90;;;5.65;;
64609;SDS011;51019;46.090;6.350;2022-11-15T12:19:09;13.52;;;5.03;;
64609;SDS011;51019;46.090;6.350;2022-11-15T12:21:38;16.27;;;5.82;;
64609;SDS011;51019;46.090;6.350;2022-11-15T12:24:12;14.10;;;5.80;;
64609;SDS011;51019;46.090;6.350;2022-11-15T12:26:46;14.55;;;5.47;;
64609;SDS011;51019;46.090;6.350;2022-11-15T12:29:20;16.55;;;5.63;;
64609;SDS011;51019;46.090;6.350;2022-11-15T12:31:54;14.88;;;5.70;;
64609;SDS011;51019;46.090;6.350;2022-11-15T12:40:18;15.00;;;5.72;;
64609;SDS011;51019;46.090;6.350;2022-11-15T12:42:57;17.30;;;6.07;;
64609;SDS011;51019;46.090;6.350;2022-11-15T12:45:53;15.68;;;5.70;;
64609;SDS011;51019;46.090;6.350;2022-11-15T12:57:31;16.20;;;5.50;;
64609;SDS011;51019;46.090;6.350;2022-11-15T13:05:55;16.63;;;6.15;;
64609;SDS011;51019;46.090;6.350;2022-11-15T13:08:39;14.85;;;5.38;;
64609;SDS011;51019;46.090;6.350;2022-11-15T13:17:28;14.48;;;6.22;;
64609;SDS011;51019;46.090;6.350;2022-11-15T13:20:00;14.05;;;5.97;;
64609;SDS011;51019;46.090;6.350;2022-11-15T13:22:39;16.38;;;5.88;;
64609;SDS011;51019;46.090;6.350;2022-11-15T13:25:30;14.40;;;5.82;;
64609;SDS011;51019;46.090;6.350;2022-11-15T13:28:22;16.25;;;5.68;;
64609;SDS011;51019;46.090;6.350;2022-11-15T13:30:55;14.98;;;5.43;;
64609;SDS011;51019;46.090;6.350;2022-11-15T13:33:24;15.50;;;5.80;;
64609;SDS011;51019;46.090;6.350;2022-11-15T13:35:56;14.05;;;5.38;;
64609;SDS011;51019;46.090;6.350;2022-11-15T13:38:26;14.73;;;5.28;;
64609;SDS011;51019;46.090;6.350;2022-11-15T13:40:55;13.98;;;4.93;;
64609;SDS011;51019;46.090;6.350;2022-11-15T13:43:28;18.45;;;5.70;;
64609;SDS011;51019;46.090;6.350;2022-11-15T13:46:04;13.65;;;5.20;;
64609;SDS011;51019;46.090;6.350;2022-11-15T13:48:33;14.93;;;5.85;;
64609;SDS011;51019;46.090;6.350;2022-11-15T13:51:00;13.52;;;5.50;;
64609;SDS011;51019;46.090;6.350;2022-11-15T13:53:30;14.57;;;5.57;;
64609;SDS011;51019;46.090;6.350;2022-11-15T13:55:58;15.90;;;5.97;;
64609;SDS011;51019;46.090;6.350;2022-11-15T13:58:28;14.70;;;5.72;;
64609;SDS011;51019;46.090;6.350;2022-11-15T14:00:58;16.65;;;5.80;;
64609;SDS011;51019;46.090;6.350;2022-11-15T14:03:27;13.82;;;5.30;;
64609;SDS011;51019;46.090;6.350;2022-11-15T14:06:04;14.35;;;5.60;;
64609;SDS011;51019;46.090;6.350;2022-11-15T14:08:35;13.32;;;5.07;;
64609;SDS011;51019;46.090;6.350;2022-11-15T14:11:06;14.60;;;5.72;;
64609;SDS011;51019;46.090;6.350;2022-11-15T14:16:46;18.20;;;5.75;;
64609;SDS011;51019;46.090;6.350;2022-11-15T14:22:09;14.20;;;4.65;;
64609;SDS011;51019;46.090;6.350;2022-11-15T14:24:46;14.48;;;5.57;;
64609;SDS011;51019;46.090;6.350;2022-11-15T14:27:29;14.63;;;4.97;;
64609;SDS011;51019;46.090;6.350;2022-11-15T14:29:58;12.75;;;4.90;;
64609;SDS011;51019;46.090;6.350;2022-11-15T14:32:29;20.27;;;6.28;;
64609;SDS011;51019;46.090;6.350;2022-11-15T14:35:09;15.48;;;5.80;;
64609;SDS011;51019;46.090;6.350;2022-11-15T14:37:41;16.42;;;5.70;;
64609;SDS011;51019;46.090;6.350;2022-11-15T14:40:08;17.40;;;6.45;;
64609;SDS011;51019;46.090;6.350;2022-11-15T14:42:40;15.02;;;6.32;;
64609;SDS011;51019;46.090;6.350;2022-11-15T14:45:09;19.50;;;6.78;;
64609;SDS011;51019;46.090;6.350;2022-11-15T14:47:42;16.10;;;6.75;;
64609;SDS011;51019;46.090;6.350;2022-11-15T14:50:11;15.77;;;6.72;;
64609;SDS011;51019;46.090;6.350;2022-11-15T14:52:39;18.98;;;8.68;;
64609;SDS011;51019;46.090;6.350;2022-11-15T14:55:13;19.05;;;8.05;;
64609;SDS011;51019;46.090;6.350;2022-11-15T14:57:44;15.15;;;6.60;;
64609;SDS011;51019;46.090;6.350;2022-11-15T15:00:13;15.38;;;6.32;;
64609;SDS011;51019;46.090;6.350;2022-11-15T15:02:42;15.77;;;6.38;;
64609;SDS011;51019;46.090;6.350;2022-11-15T15:05:15;15.05;;;5.93;;
64609;SDS011;51019;46.090;6.350;2022-11-15T15:07:44;15.43;;;6.85;;
64609;SDS011;51019;46.090;6.350;2022-11-15T15:10:13;71.43;;;28.90;;
64609;SDS011;51019;46.090;6.350;2022-11-15T15:12:43;69.82;;;32.03;;
64609;SDS011;51019;46.090;6.350;2022-11-15T15:15:12;43.92;;;18.00;;
64609;SDS011;51019;46.090;6.350;2022-11-15T15:17:43;15.85;;;6.15;;
64609;SDS011;51019;46.090;6.350;2022-11-15T15:20:11;14.63;;;5.53;;
64609;SDS011;51019;46.090;6.350;2022-11-15T15:22:39;14.35;;;6.57;;
64609;SDS011;51019;46.090;6.350;2022-11-15T15:25:14;16.75;;;7.10;;
64609;SDS011;51019;46.090;6.350;2022-11-15T15:27:52;18.75;;;9.73;;
64609;SDS011;51019;46.090;6.350;2022-11-15T15:30:20;15.32;;;5.93;;
64609;SDS011;51019;46.090;6.350;2022-11-15T15:32:50;15.05;;;5.45;;
64609;SDS011;51019;46.090;6.350;2022-11-15T15:35:19;17.50;;;9.50;;
64609;SDS011;51019;46.090;6.350;2022-11-15T15:37:47;17.52;;;8.48;;
64609;SDS011;51019;46.090;6.350;2022-11-15T15:40:17;17.08;;;8.57;;
64609;SDS011;51019;46.090;6.350;2022-11-15T15:42:46;19.77;;;8.07;;
64609;SDS011;51019;46.090;6.350;2022-11-15T15:45:14;16.90;;;6.70;;
64609;SDS011;51019;46.090;6.350;2022-11-15T15:47:42;15.55;;;6.32;;
64609;SDS011;51019;46.090;6.350;2022-11-15T15:50:26;15.63;;;5.82;;
64609;SDS011;51019;46.090;6.350;2022-11-15T15:52:55;16.02;;;6.05;;
64609;SDS011;51019;46.090;6.350;2022-11-15T15:55:24;16.02;;;6.50;;
64609;SDS011;51019;46.090;6.350;2022-11-15T15:57:51;17.67;;;7.07;;